Lattimore, North Carolina
Current Conditions -  °F | °C
As of 11:15 AM on Monday 22 Dec 2014 (Local Time) from KEHO Reporting Station
Overcast Overcast  
Wind Chill: 32°   Ceiling: 700
Heat Index: 38°   Visibility: 7mi
Dew Point: 37°   Wind: 8mph
Humidity: 93%   Direction: 20°NNE
Pressure: 30.12"   Gusts: NA
Location:  35.32°N, 81.66°W
Report Text: KEHO 221615Z AUTO 02007KT 7SM OVC007 04/03 A3012 RMK AO2 T00350025
Loading
Personal Weather Stations






























Interactive Weather Map New forecast layout! Learn more

10-Day Weather Forecast

Advertisements
Track Severe Weather on mobile